createdAt,value
2018-08-22T00:01:10.398Z,22.84
2018-08-22T00:03:38.774Z,22.83
2018-08-22T00:06:07.199Z,22.86
2018-08-22T00:08:40.866Z,22.91
2018-08-22T00:11:09.385Z,22.93
2018-08-22T00:13:37.786Z,22.92
2018-08-22T00:16:06.330Z,22.90
2018-08-22T00:18:34.661Z,22.85
2018-08-22T00:21:03.125Z,22.78
2018-08-22T00:23:31.501Z,22.73
2018-08-22T00:25:59.922Z,22.71
2018-08-22T00:28:28.336Z,22.65
2018-08-22T00:31:03.012Z,22.60
2018-08-22T00:33:31.332Z,22.56
2018-08-22T00:35:59.660Z,22.59
2018-08-22T00:38:28.104Z,22.55
2018-08-22T00:40:56.475Z,22.59
2018-08-22T00:43:24.799Z,22.67
2018-08-22T00:45:53.245Z,22.73
2018-08-22T00:48:21.612Z,22.76
2018-08-22T00:50:49.988Z,22.64
2018-08-22T00:53:18.337Z,22.56
2018-08-22T00:55:46.673Z,22.66
2018-08-22T00:58:15.018Z,22.70
2018-08-22T01:00:43.699Z,22.75
2018-08-22T01:03:12.013Z,22.77
2018-08-22T01:05:40.357Z,22.65
2018-08-22T01:08:08.939Z,22.47
2018-08-22T01:10:37.407Z,22.41
2018-08-22T01:13:05.727Z,22.32
2018-08-22T01:15:34.282Z,22.24
2018-08-22T01:18:02.659Z,22.11
2018-08-22T01:20:30.985Z,21.99
2018-08-22T01:22:59.395Z,21.99
2018-08-22T01:25:27.811Z,22.04
2018-08-22T01:27:56.190Z,22.13
2018-08-22T01:30:24.567Z,22.18
2018-08-22T01:32:52.902Z,22.17
2018-08-22T01:35:21.314Z,22.16
2018-08-22T01:37:49.890Z,22.16
2018-08-22T01:40:18.210Z,22.17
2018-08-22T01:42:46.531Z,22.17
2018-08-22T01:45:15.122Z,22.20
2018-08-22T01:47:43.444Z,22.26
2018-08-22T01:50:11.774Z,22.32
2018-08-22T01:52:40.208Z,22.41
2018-08-22T01:55:08.646Z,22.48
2018-08-22T01:57:37.034Z,22.55
2018-08-22T02:00:06.270Z,22.60
2018-08-22T02:02:34.825Z,22.66
2018-08-22T02:05:03.214Z,22.70
2018-08-22T02:07:31.711Z,22.75
2018-08-22T02:10:00.026Z,22.78
2018-08-22T02:12:28.387Z,22.80
2018-08-22T02:14:56.845Z,22.79
2018-08-22T02:17:25.274Z,22.71
2018-08-22T02:19:53.586Z,22.60
2018-08-22T02:22:22.130Z,22.55
2018-08-22T02:24:50.510Z,22.50
2018-08-22T02:27:18.827Z,22.44
2018-08-22T02:29:47.379Z,22.39
2018-08-22T02:32:15.697Z,22.38
2018-08-22T02:34:44.017Z,22.40
2018-08-22T02:37:12.454Z,22.40
2018-08-22T02:39:40.890Z,22.45
2018-08-22T02:42:09.221Z,22.49
2018-08-22T02:44:37.743Z,22.54
2018-08-22T02:47:06.068Z,22.58
2018-08-22T02:49:34.397Z,22.57
2018-08-22T02:52:02.989Z,22.58
2018-08-22T02:54:31.294Z,22.56
2018-08-22T02:56:59.647Z,22.32
2018-08-22T02:59:28.125Z,22.17
2018-08-22T03:01:56.438Z,22.15
2018-08-22T03:04:24.877Z,22.19
2018-08-22T03:06:53.362Z,22.33
2018-08-22T03:09:21.696Z,22.40
2018-08-22T03:11:50.029Z,22.37
2018-08-22T03:14:18.446Z,22.31
2018-08-22T03:16:47.079Z,22.33
2018-08-22T03:19:15.398Z,22.18
2018-08-22T03:21:43.780Z,21.98
2018-08-22T03:24:12.101Z,21.99
2018-08-22T03:26:40.489Z,21.99
2018-08-22T03:29:09.014Z,21.90
2018-08-22T03:31:37.349Z,21.73
2018-08-22T03:34:05.745Z,21.55
2018-08-22T03:36:34.112Z,21.48
2018-08-22T03:39:02.442Z,21.30
2018-08-22T03:41:30.761Z,21.14
2018-08-22T03:43:59.358Z,21.07
2018-08-22T03:46:27.690Z,20.89
2018-08-22T03:48:56.023Z,20.79
2018-08-22T03:51:24.559Z,20.74
2018-08-22T03:53:52.966Z,20.85
2018-08-22T03:56:21.300Z,21.00
2018-08-22T03:58:49.849Z,21.16
2018-08-22T04:01:18.203Z,21.26
2018-08-22T04:03:46.579Z,21.21
2018-08-22T04:06:15.061Z,21.15
2018-08-22T04:08:43.451Z,21.01
2018-08-22T04:11:11.786Z,20.92
2018-08-22T04:13:40.299Z,20.96
2018-08-22T04:16:08.647Z,21.08
2018-08-22T04:18:36.995Z,21.13
2018-08-22T04:21:05.587Z,21.01
2018-08-22T04:23:33.927Z,20.89
2018-08-22T04:26:02.260Z,20.94
2018-08-22T04:28:30.891Z,21.07
2018-08-22T04:30:59.345Z,21.19
2018-08-22T04:33:27.740Z,21.31
2018-08-22T04:35:56.316Z,21.41
2018-08-22T04:38:24.702Z,21.46
2018-08-22T04:40:59.939Z,21.46
2018-08-22T04:43:28.312Z,21.46
2018-08-22T04:45:56.653Z,21.51
2018-08-22T04:48:25.172Z,21.56
2018-08-22T04:50:53.497Z,21.59
2018-08-22T04:53:21.824Z,21.61
2018-08-22T04:55:50.404Z,21.61
2018-08-22T04:58:18.772Z,21.65
2018-08-22T05:00:47.616Z,21.67
2018-08-22T05:03:16.250Z,21.66
2018-08-22T05:05:44.644Z,21.71
2018-08-22T05:08:12.972Z,21.75
2018-08-22T05:10:41.438Z,21.72
2018-08-22T05:13:09.780Z,21.71
2018-08-22T05:15:38.103Z,21.70
2018-08-22T05:18:07.688Z,21.69
2018-08-22T05:20:36.012Z,21.70
2018-08-22T05:23:04.792Z,21.76
2018-08-22T05:25:33.510Z,21.76
2018-08-22T05:28:01.911Z,21.66
2018-08-22T05:30:30.388Z,21.69
2018-08-22T05:32:58.950Z,21.58
2018-08-22T05:35:27.292Z,21.43
2018-08-22T05:37:55.724Z,21.47
2018-08-22T05:40:24.290Z,21.61
2018-08-22T05:42:52.612Z,21.72
2018-08-22T05:45:20.946Z,21.86
2018-08-22T05:47:49.321Z,21.89
2018-08-22T05:50:17.644Z,21.97
2018-08-22T05:52:45.963Z,22.04
2018-08-22T05:55:14.417Z,22.10
2018-08-22T05:57:42.929Z,22.13
2018-08-22T06:00:11.228Z,22.22
2018-08-22T06:02:39.794Z,22.29
2018-08-22T06:05:08.907Z,22.34
2018-08-22T06:07:37.233Z,22.41
2018-08-22T06:10:06.731Z,22.51
2018-08-22T06:12:35.171Z,22.58
2018-08-22T06:15:04.830Z,22.63
2018-08-22T06:17:33.961Z,22.69
2018-08-22T06:20:02.335Z,22.72
2018-08-22T06:22:32.867Z,22.77
2018-08-22T06:25:02.297Z,22.81
2018-08-22T06:27:32.025Z,22.88
2018-08-22T06:30:00.371Z,22.93
2018-08-22T06:32:29.755Z,23.00
2018-08-22T06:35:00.283Z,23.06
2018-08-22T06:37:28.777Z,23.07
2018-08-22T06:39:57.252Z,23.11
2018-08-22T06:42:26.656Z,23.14
2018-08-22T06:44:55.036Z,23.19
2018-08-22T06:47:24.476Z,23.22
2018-08-22T06:49:55.187Z,23.23
2018-08-22T06:52:24.208Z,23.24
2018-08-22T06:54:52.556Z,23.25
2018-08-22T06:57:23.944Z,23.27
2018-08-22T06:59:54.247Z,23.32
2018-08-22T07:02:23.424Z,23.43
2018-08-22T07:04:51.800Z,23.54
2018-08-22T07:07:20.276Z,23.63
2018-08-22T07:09:48.627Z,23.69
2018-08-22T07:12:17.039Z,23.76
2018-08-22T07:14:46.614Z,23.78
2018-08-22T07:17:14.967Z,23.84
2018-08-22T07:19:43.610Z,23.87
2018-08-22T07:22:11.985Z,23.92
2018-08-22T07:24:40.354Z,23.98
2018-08-22T07:27:08.790Z,24.05
2018-08-22T07:29:37.228Z,24.07
2018-08-22T07:32:05.788Z,24.08
2018-08-22T07:34:34.449Z,24.13
2018-08-22T07:37:03.052Z,24.20
2018-08-22T07:39:31.394Z,24.28
2018-08-22T07:41:59.731Z,24.36
2018-08-22T07:44:28.298Z,24.46
2018-08-22T07:46:56.660Z,24.54
2018-08-22T07:49:24.975Z,24.64
2018-08-22T07:51:53.631Z,24.72
2018-08-22T07:54:24.652Z,24.75
2018-08-22T07:56:53.639Z,24.81
2018-08-22T07:59:22.156Z,24.91
2018-08-22T08:01:50.704Z,24.96
2018-08-22T08:04:18.894Z,25.02
2018-08-22T08:06:47.486Z,25.10
2018-08-22T08:09:16.664Z,25.19
2018-08-22T08:11:45.011Z,25.25
2018-08-22T08:14:13.552Z,25.28
2018-08-22T08:16:41.927Z,25.38
2018-08-22T08:19:10.416Z,25.47
2018-08-22T08:21:38.991Z,25.54
2018-08-22T08:24:07.804Z,25.65
2018-08-22T08:26:36.180Z,25.78
2018-08-22T08:29:04.836Z,25.88
2018-08-22T08:31:33.300Z,25.96
2018-08-22T08:34:01.775Z,26.00
2018-08-22T08:36:30.306Z,26.06
2018-08-22T08:38:58.686Z,26.13
2018-08-22T08:41:27.073Z,26.21
2018-08-22T08:43:55.615Z,26.29
2018-08-22T08:46:23.957Z,26.30
2018-08-22T08:48:52.380Z,26.35
2018-08-22T08:51:21.249Z,26.45
2018-08-22T08:53:49.612Z,26.58
2018-08-22T08:56:18.023Z,26.60
2018-08-22T08:58:46.532Z,26.64
2018-08-22T09:01:14.875Z,26.77
2018-08-22T09:03:43.301Z,26.88
2018-08-22T09:06:11.848Z,26.98
2018-08-22T09:08:40.251Z,27.08
2018-08-22T09:11:08.627Z,27.14
2018-08-22T09:13:42.515Z,27.25
2018-08-22T09:16:11.574Z,27.39
2018-08-22T09:18:39.924Z,27.44
2018-08-22T09:21:08.290Z,27.52
2018-08-22T09:23:36.643Z,27.63
2018-08-22T09:26:05.152Z,27.74
2018-08-22T09:28:33.712Z,27.85
2018-08-22T09:31:02.179Z,27.94
2018-08-22T09:33:30.517Z,28.04
2018-08-22T09:35:59.063Z,28.05
2018-08-22T09:38:27.420Z,28.06
2018-08-22T09:40:55.739Z,28.15
2018-08-22T09:43:24.388Z,28.26
2018-08-22T09:45:52.759Z,28.30
2018-08-22T09:48:21.163Z,28.37
2018-08-22T09:50:49.640Z,28.45
2018-08-22T09:53:17.966Z,28.59
2018-08-22T09:55:46.292Z,28.76
2018-08-22T09:58:14.921Z,28.86
2018-08-22T10:00:48.544Z,28.99
2018-08-22T10:03:17.039Z,29.04
2018-08-22T10:05:45.359Z,29.12
2018-08-22T10:08:13.679Z,29.18
2018-08-22T10:10:42.188Z,29.34
2018-08-22T10:13:10.568Z,29.50
2018-08-22T10:15:39.124Z,29.61
2018-08-22T10:18:08.191Z,29.70
2018-08-22T10:20:36.524Z,29.81
2018-08-22T10:23:05.108Z,29.92
2018-08-22T10:25:33.504Z,30.01
2018-08-22T10:28:01.852Z,30.16
2018-08-22T10:30:30.229Z,30.23
2018-08-22T10:32:58.808Z,30.29
2018-08-22T10:35:27.128Z,30.50
2018-08-22T10:37:55.475Z,30.69
2018-08-22T10:40:23.940Z,30.79
2018-08-22T10:42:52.313Z,30.83
2018-08-22T10:45:20.640Z,30.92
2018-08-22T10:47:49.280Z,31.06
2018-08-22T10:50:17.736Z,31.13
2018-08-22T10:52:46.206Z,31.26
2018-08-22T10:55:14.744Z,31.36
2018-08-22T10:57:43.170Z,31.50
2018-08-22T11:00:11.671Z,31.54
2018-08-22T11:02:40.134Z,31.69
2018-08-22T11:05:08.452Z,31.83
2018-08-22T11:07:36.839Z,31.96
2018-08-22T11:10:05.472Z,32.08
2018-08-22T11:12:33.763Z,32.14
2018-08-22T11:15:02.110Z,32.23
2018-08-22T11:17:30.643Z,32.31
2018-08-22T11:19:59.024Z,32.37
2018-08-22T11:22:38.690Z,32.51
2018-08-22T11:25:18.413Z,32.63
2018-08-22T11:27:58.251Z,32.73
2018-08-22T11:37:25.059Z,33.08
2018-08-22T11:39:53.415Z,33.16
2018-08-22T11:42:21.807Z,33.27
2018-08-22T11:44:50.383Z,33.38
2018-08-22T11:47:18.767Z,33.48
2018-08-22T11:49:47.151Z,33.57
2018-08-22T11:52:16.347Z,33.66
2018-08-22T11:54:44.681Z,33.75
2018-08-22T11:57:13.021Z,33.82
2018-08-22T11:59:41.575Z,33.87
2018-08-22T12:02:09.956Z,33.99
2018-08-22T12:04:38.291Z,34.15
2018-08-22T12:07:06.751Z,34.29
2018-08-22T12:09:35.095Z,34.41
2018-08-22T12:12:03.471Z,34.43
2018-08-22T12:14:31.935Z,34.45
2018-08-22T12:17:00.328Z,34.54
2018-08-22T12:19:28.716Z,34.61
2018-08-22T12:21:57.332Z,34.65
2018-08-22T12:24:25.716Z,34.70
2018-08-22T12:26:54.222Z,34.69
2018-08-22T12:29:22.700Z,34.77
2018-08-22T12:31:51.036Z,34.86
2018-08-22T12:34:19.357Z,34.95
2018-08-22T12:36:47.972Z,34.99
2018-08-22T12:39:16.352Z,35.00
2018-08-22T12:41:44.728Z,35.08
2018-08-22T12:44:13.321Z,35.22
2018-08-22T12:46:41.767Z,35.22
2018-08-22T12:49:10.132Z,35.17
2018-08-22T12:51:38.655Z,35.21
2018-08-22T12:54:07.104Z,35.31
2018-08-22T12:56:35.523Z,35.41
2018-08-22T12:59:04.245Z,35.49
2018-08-22T13:01:32.586Z,35.53
2018-08-22T13:04:00.952Z,35.50
2018-08-22T13:06:29.415Z,35.59
2018-08-22T13:08:57.767Z,35.64
2018-08-22T13:11:26.282Z,35.72
2018-08-22T13:13:54.772Z,35.72
2018-08-22T13:16:23.104Z,35.70
2018-08-22T13:18:51.540Z,35.61
2018-08-22T13:21:20.108Z,35.62
2018-08-22T13:23:48.424Z,35.62
2018-08-22T13:26:16.796Z,35.48
2018-08-22T13:28:45.175Z,35.44
2018-08-22T13:31:13.527Z,35.64
2018-08-22T13:33:41.879Z,35.78
2018-08-22T13:36:10.422Z,35.83
2018-08-22T13:38:38.855Z,35.91
2018-08-22T13:41:07.215Z,35.85
2018-08-22T13:43:35.604Z,35.86
2018-08-22T13:46:03.971Z,35.93
2018-08-22T13:48:32.380Z,35.97
2018-08-22T13:51:00.957Z,36.06
2018-08-22T13:53:29.349Z,35.98
2018-08-22T13:55:58.377Z,35.94
2018-08-22T13:58:26.896Z,36.00
2018-08-22T14:00:55.364Z,36.10
2018-08-22T14:03:23.769Z,36.18
2018-08-22T14:05:52.241Z,36.20
2018-08-22T14:08:20.589Z,36.28
2018-08-22T14:10:48.931Z,36.37
2018-08-22T14:13:17.690Z,36.35
2018-08-22T14:15:46.155Z,36.33
2018-08-22T14:18:14.517Z,36.24
2018-08-22T14:20:43.549Z,36.22
2018-08-22T14:23:11.905Z,36.24
2018-08-22T14:25:40.740Z,36.26
2018-08-22T14:28:09.214Z,36.29
2018-08-22T14:30:38.194Z,36.29
2018-08-22T14:33:06.675Z,36.30
2018-08-22T14:35:35.257Z,36.31
2018-08-22T14:38:03.577Z,36.22
2018-08-22T14:40:31.891Z,36.18
2018-08-22T14:43:00.392Z,36.23
2018-08-22T14:45:28.712Z,36.28
2018-08-22T14:47:57.091Z,36.30
2018-08-22T14:50:25.456Z,36.20
2018-08-22T14:52:53.777Z,36.13
2018-08-22T14:55:22.127Z,36.12
2018-08-22T14:57:50.775Z,36.08
2018-08-22T15:00:19.156Z,36.03
2018-08-22T15:02:48.467Z,35.98
2018-08-22T15:05:16.911Z,35.78
2018-08-22T15:07:45.249Z,35.42
2018-08-22T15:10:15.972Z,35.26
2018-08-22T15:12:44.507Z,35.19
2018-08-22T15:15:12.896Z,35.08
2018-08-22T15:17:41.284Z,35.02
2018-08-22T15:20:09.861Z,35.05
2018-08-22T15:22:39.380Z,35.05
2018-08-22T15:25:08.212Z,35.05
2018-08-22T15:27:37.258Z,35.07
2018-08-22T15:30:06.545Z,35.11
2018-08-22T15:32:35.096Z,35.16
2018-08-22T15:35:03.561Z,35.18
2018-08-22T15:37:32.620Z,35.12
2018-08-22T15:40:01.030Z,35.08
2018-08-22T15:42:29.552Z,35.01
2018-08-22T15:44:58.096Z,34.96
2018-08-22T15:47:26.669Z,34.95
2018-08-22T15:49:55.065Z,34.95
2018-08-22T15:52:23.402Z,34.96
2018-08-22T15:55:07.767Z,34.93
2018-08-22T15:57:49.289Z,34.88
2018-08-22T16:00:28.549Z,34.87
2018-08-22T16:02:56.962Z,34.71
2018-08-22T16:05:25.412Z,34.50
2018-08-22T16:07:53.793Z,34.42
2018-08-22T16:10:22.743Z,34.44
2018-08-22T16:12:51.168Z,34.47
2018-08-22T16:15:19.841Z,34.42
2018-08-22T16:17:52.900Z,34.30
2018-08-22T16:20:23.359Z,34.13
2018-08-22T16:22:51.691Z,34.03
2018-08-22T16:25:23.823Z,33.99
2018-08-22T16:27:52.975Z,33.86
2018-08-22T16:30:21.332Z,33.71
2018-08-22T16:32:50.052Z,33.64
2018-08-22T16:35:18.510Z,33.70
2018-08-22T16:38:00.420Z,33.72
2018-08-22T16:40:31.112Z,33.76
2018-08-22T16:42:59.592Z,33.81
2018-08-22T16:45:28.148Z,33.80
2018-08-22T16:47:56.529Z,33.74
2018-08-22T16:50:25.574Z,33.68
2018-08-22T16:52:54.356Z,33.57
2018-08-22T16:55:24.102Z,33.57
2018-08-22T16:57:53.064Z,33.53
2018-08-22T17:00:34.492Z,33.49
2018-08-22T17:03:04.356Z,33.42
2018-08-22T17:05:32.850Z,33.39
2018-08-22T17:08:01.484Z,33.34
2018-08-22T17:11:03.288Z,33.29
2018-08-22T17:13:40.888Z,33.18
2018-08-22T17:16:09.327Z,33.11
2018-08-22T17:18:37.807Z,33.07
2018-08-22T17:21:06.564Z,33.02
2018-08-22T17:23:34.956Z,32.95
2018-08-22T17:26:03.373Z,32.74
2018-08-22T17:28:38.870Z,32.51
2018-08-22T17:31:07.728Z,32.37
2018-08-22T17:33:40.344Z,32.25
2018-08-22T17:36:09.704Z,32.24
2018-08-22T17:38:38.588Z,32.21
2018-08-22T17:41:06.996Z,32.17
2018-08-22T17:43:50.737Z,32.09
2018-08-22T17:46:20.249Z,32.01
2018-08-22T17:48:50.553Z,31.91
2018-08-22T17:51:19.061Z,31.89
2018-08-22T17:53:47.645Z,31.86
2018-08-22T17:56:16.019Z,31.83
2018-08-22T17:58:44.457Z,31.74
2018-08-22T18:01:13.073Z,31.64
2018-08-22T18:03:41.421Z,31.51
2018-08-22T18:06:09.781Z,31.39
2018-08-22T18:08:38.219Z,31.25
2018-08-22T18:11:07.020Z,31.14
2018-08-22T18:13:35.381Z,31.05
2018-08-22T18:16:03.955Z,30.99
2018-08-22T18:18:32.309Z,30.88
2018-08-22T18:21:01.951Z,30.79
2018-08-22T18:23:30.837Z,30.72
2018-08-22T18:25:59.214Z,30.63
2018-08-22T18:28:28.361Z,30.55
2018-08-22T18:30:57.330Z,30.52
2018-08-22T18:33:28.731Z,30.45
2018-08-22T18:35:58.967Z,30.35
2018-08-22T18:38:27.571Z,30.14
2018-08-22T18:41:06.337Z,29.97
2018-08-22T18:43:34.719Z,29.80
2018-08-22T18:46:05.751Z,29.75
2018-08-22T18:48:35.703Z,29.80
2018-08-22T18:51:04.468Z,29.76
2018-08-22T18:53:33.231Z,29.82
2018-08-22T18:56:12.136Z,29.78
2018-08-22T18:58:40.777Z,29.70
2018-08-22T19:01:09.197Z,29.62
2018-08-22T19:03:38.088Z,29.54
2018-08-22T19:06:06.931Z,29.48
2018-08-22T19:08:37.540Z,29.38
2018-08-22T19:11:06.543Z,29.22
2018-08-22T19:13:34.880Z,29.19
2018-08-22T19:16:05.268Z,29.11
2018-08-22T19:18:34.127Z,29.06
2018-08-22T19:21:08.326Z,28.99
2018-08-22T19:23:36.953Z,28.97
2018-08-22T19:26:06.462Z,28.91
2018-08-22T19:29:06.687Z,28.86
2018-08-22T19:31:37.007Z,28.80
2018-08-22T19:34:05.555Z,28.72
2018-08-22T19:36:34.191Z,28.69
2018-08-22T19:39:02.576Z,28.56
2018-08-22T19:41:33.185Z,28.46
2018-08-22T19:44:01.575Z,28.39
2018-08-22T19:46:30.076Z,28.30
2018-08-22T19:48:58.905Z,28.24
2018-08-22T19:51:27.431Z,28.19
2018-08-22T19:54:01.296Z,28.12
2018-08-22T19:56:30.558Z,28.02
2018-08-22T19:58:59.295Z,27.87
2018-08-22T20:01:30.879Z,27.71
2018-08-22T20:03:59.465Z,27.56
2018-08-22T20:06:28.029Z,27.53
2018-08-22T20:08:57.813Z,27.47
2018-08-22T20:11:26.447Z,27.39
2018-08-22T20:14:03.959Z,27.32
2018-08-22T20:16:32.625Z,27.25
2018-08-22T20:19:03.246Z,27.26
2018-08-22T20:21:38.912Z,27.25
2018-08-22T20:24:12.208Z,27.17
2018-08-22T20:26:50.739Z,27.03
2018-08-22T20:29:19.064Z,26.97
2018-08-22T20:31:47.639Z,26.94
2018-08-22T20:34:17.275Z,26.87
2018-08-22T20:36:47.873Z,26.82
2018-08-22T20:39:16.564Z,26.81
2018-08-22T20:41:45.490Z,26.80
2018-08-22T20:44:18.617Z,26.76
2018-08-22T20:46:48.119Z,26.75
2018-08-22T20:49:18.838Z,26.69
2018-08-22T20:51:47.271Z,26.66
2018-08-22T20:54:22.323Z,26.59
2018-08-22T20:56:55.990Z,26.52
2018-08-22T20:59:24.431Z,26.49
2018-08-22T21:01:55.890Z,26.51
2018-08-22T21:04:24.280Z,26.47
2018-08-22T21:06:52.674Z,26.40
2018-08-22T21:09:21.038Z,26.35
2018-08-22T21:11:49.446Z,26.31
2018-08-22T21:14:18.068Z,26.25
2018-08-22T21:16:46.460Z,26.20
2018-08-22T21:19:14.818Z,26.19
2018-08-22T21:21:43.400Z,26.14
2018-08-22T21:24:11.891Z,26.06
2018-08-22T21:26:41.919Z,25.90
2018-08-22T21:29:10.480Z,25.74
2018-08-22T21:31:39.347Z,25.67
2018-08-22T21:34:13.867Z,25.60
2018-08-22T21:36:44.272Z,25.53
2018-08-22T21:39:18.015Z,25.49
2018-08-22T21:41:47.056Z,25.45
2018-08-22T21:44:19.106Z,25.39
2018-08-22T21:46:55.514Z,25.37
2018-08-22T21:49:24.596Z,25.35
2018-08-22T21:51:53.223Z,25.32
2018-08-22T21:54:21.608Z,25.29
2018-08-22T21:56:50.096Z,25.25
2018-08-22T21:59:18.421Z,25.25
2018-08-22T22:01:51.957Z,25.21
2018-08-22T22:04:52.306Z,25.19
2018-08-22T22:07:20.727Z,25.14
2018-08-22T22:09:51.629Z,25.09
2018-08-22T22:12:51.809Z,25.03
2018-08-22T22:15:25.423Z,24.96
2018-08-22T22:17:54.114Z,24.92
2018-08-22T22:20:22.507Z,24.91
2018-08-22T22:22:50.876Z,24.92
2018-08-22T22:25:19.449Z,24.88
2018-08-22T22:27:47.836Z,24.84
2018-08-22T22:30:16.220Z,24.79
2018-08-22T22:32:44.816Z,24.77
2018-08-22T22:35:14.499Z,24.76
2018-08-22T22:37:42.888Z,24.70
2018-08-22T22:40:11.384Z,24.66
2018-08-22T22:42:39.847Z,24.61
2018-08-22T22:45:08.336Z,24.59
2018-08-22T22:47:36.795Z,24.56
2018-08-22T22:50:05.190Z,24.54
2018-08-22T22:52:40.446Z,24.52
2018-08-22T22:55:09.980Z,24.44
2018-08-22T22:57:40.601Z,24.37
2018-08-22T23:00:11.555Z,24.31
2018-08-22T23:02:39.941Z,24.30
2018-08-22T23:05:08.888Z,24.29
2018-08-22T23:07:40.423Z,24.26
2018-08-22T23:10:11.920Z,24.27
2018-08-22T23:12:43.185Z,24.20
2018-08-22T23:15:15.390Z,24.13
2018-08-22T23:17:44.272Z,24.09
2018-08-22T23:20:23.533Z,24.04
2018-08-22T23:22:51.976Z,24.03
2018-08-22T23:25:20.335Z,23.98
2018-08-22T23:27:48.686Z,23.91
2018-08-22T23:30:18.848Z,23.83
2018-08-22T23:32:47.173Z,23.76
2018-08-22T23:35:24.112Z,23.74
2018-08-22T23:37:55.616Z,23.73
2018-08-22T23:40:25.182Z,23.71
2018-08-22T23:42:53.939Z,23.67
2018-08-22T23:45:22.382Z,23.64
2018-08-22T23:47:51.149Z,23.59
2018-08-22T23:50:19.590Z,23.56
2018-08-22T23:52:49.467Z,23.58
2018-08-22T23:55:20.444Z,23.54
2018-08-22T23:57:50.720Z,23.53
